Prins Christian Sund

KL  EN  DA
ASIAQ
Weather Now GREENLAND SURVEY
Updated [WGT/WGST] Temperature [°C] Wind [m/s] Air pressure [hPa] Relative humidity [%] Precipitation [mm]
Present Wind chill Speed Max
25.02 07:00n/an/an/an/an/an/an/a
25.02 06:00-6,0-13,26,3 ⇒10,6100227n/a
25.02 05:00-6,6-12,84,5 ⇒7,3100227n/a
25.02 04:00-6,4-13,96,6 ⇒10,6100230n/a
25.02 03:00-6,5-14,77,9 ⇒12,7100128n/a
25.02 02:00-6,3-15,510,2 ⇒14,4100030n/a
25.02 01:00-6,7-15,79,4 ⇒11,7100032n/a
25.02 00:00-6,7-16,712,2 ⇒16,499928n/a
24.02 23:00-6,5-15,810,3 ⇒14,399927n/a
24.02 22:00-6,6-15,59,3 ⇒12,799827n/a
24.02 21:00-6,8-16,110,1 ⇒14,099732n/a
24.02 20:00-7,0-17,413,2 ⇒17,299630n/a
24.02 19:00-7,0-17,714,2 ⇒18,899435n/a
24.02 18:00-6,9-18,015,4 ⇒19,399340n/a
24.02 17:00-7,0-18,215,6 ⇒20,699244n/a
24.02 16:00-6,7-17,213,8 ⇒18,299141n/a
24.02 15:00-6,3-14,27,4 ⇒10,099131n/a
24.02 14:00-5,4-14,510,8 ⇒13,999031n/a
24.02 13:00-5,1-14,813,0 ⇒17,698944n/a
24.02 12:00-4,3-12,79,9 ⇒13,298854n/a
24.02 11:00-5,2-11,14,5 ⇗6,198870n/a
24.02 10:00-5,6-9,72,5 ⇒4,198879n/a
24.02 09:00-6,0-10,93,2 ⇗4,198881n/a
24.02 08:00-6,9-11,83,0 ⇗4,198888n/a
24.02 07:00-6,80,00,9 ⇒1,398890n/a
Position: (60.05527777,-43.16527777)

[Back]